sensor_id;sensor_type;location;lat;lon;timestamp;P1;durP1;ratioP1;P2;durP2;ratioP2
85763;SDS011;76207;39.772;2.706;2024-02-26T00:01:40;3.80;;;1.50;;
85763;SDS011;76207;39.772;2.706;2024-02-26T00:04:06;4.50;;;1.20;;
85763;SDS011;76207;39.772;2.706;2024-02-26T00:06:31;2.10;;;1.10;;
85763;SDS011;76207;39.772;2.706;2024-02-26T00:08:57;3.00;;;1.10;;
85763;SDS011;76207;39.772;2.706;2024-02-26T00:11:23;3.10;;;1.20;;
85763;SDS011;76207;39.772;2.706;2024-02-26T00:13:49;3.50;;;1.50;;
85763;SDS011;76207;39.772;2.706;2024-02-26T00:16:14;3.30;;;1.10;;
85763;SDS011;76207;39.772;2.706;2024-02-26T00:18:40;3.50;;;1.20;;
85763;SDS011;76207;39.772;2.706;2024-02-26T00:21:06;3.40;;;1.20;;
85763;SDS011;76207;39.772;2.706;2024-02-26T00:23:31;3.10;;;1.30;;
85763;SDS011;76207;39.772;2.706;2024-02-26T00:25:57;3.50;;;1.00;;
85763;SDS011;76207;39.772;2.706;2024-02-26T00:28:22;3.20;;;1.20;;
85763;SDS011;76207;39.772;2.706;2024-02-26T00:30:49;3.70;;;1.20;;
85763;SDS011;76207;39.772;2.706;2024-02-26T00:33:16;2.70;;;1.10;;
85763;SDS011;76207;39.772;2.706;2024-02-26T00:35:42;2.30;;;1.00;;
85763;SDS011;76207;39.772;2.706;2024-02-26T00:38:08;2.40;;;1.00;;
85763;SDS011;76207;39.772;2.706;2024-02-26T00:40:33;3.60;;;1.10;;
85763;SDS011;76207;39.772;2.706;2024-02-26T00:42:59;2.50;;;1.10;;
85763;SDS011;76207;39.772;2.706;2024-02-26T00:45:25;3.50;;;1.40;;
85763;SDS011;76207;39.772;2.706;2024-02-26T00:47:50;2.70;;;1.00;;
85763;SDS011;76207;39.772;2.706;2024-02-26T00:50:16;4.40;;;1.00;;
85763;SDS011;76207;39.772;2.706;2024-02-26T00:52:41;2.20;;;0.80;;
85763;SDS011;76207;39.772;2.706;2024-02-26T00:55:07;2.10;;;1.10;;
85763;SDS011;76207;39.772;2.706;2024-02-26T00:57:33;2.00;;;0.90;;
85763;SDS011;76207;39.772;2.706;2024-02-26T00:59:59;0.80;;;0.70;;
85763;SDS011;76207;39.772;2.706;2024-02-26T01:02:25;2.00;;;1.00;;
85763;SDS011;76207;39.772;2.706;2024-02-26T01:04:51;2.60;;;1.00;;
85763;SDS011;76207;39.772;2.706;2024-02-26T01:07:16;2.00;;;1.20;;
85763;SDS011;76207;39.772;2.706;2024-02-26T01:09:42;3.10;;;1.30;;
85763;SDS011;76207;39.772;2.706;2024-02-26T01:12:08;3.50;;;1.10;;
85763;SDS011;76207;39.772;2.706;2024-02-26T01:14:34;4.20;;;1.10;;
85763;SDS011;76207;39.772;2.706;2024-02-26T01:16:59;2.80;;;1.20;;
85763;SDS011;76207;39.772;2.706;2024-02-26T01:19:25;4.40;;;1.30;;
85763;SDS011;76207;39.772;2.706;2024-02-26T01:21:50;3.50;;;1.10;;
85763;SDS011;76207;39.772;2.706;2024-02-26T01:24:16;3.20;;;1.10;;
85763;SDS011;76207;39.772;2.706;2024-02-26T01:26:42;2.70;;;0.90;;
85763;SDS011;76207;39.772;2.706;2024-02-26T01:29:08;1.80;;;0.80;;
85763;SDS011;76207;39.772;2.706;2024-02-26T01:31:33;2.60;;;1.00;;
85763;SDS011;76207;39.772;2.706;2024-02-26T01:33:59;1.30;;;0.80;;
85763;SDS011;76207;39.772;2.706;2024-02-26T01:36:24;3.00;;;1.70;;
85763;SDS011;76207;39.772;2.706;2024-02-26T01:38:50;2.20;;;1.00;;
85763;SDS011;76207;39.772;2.706;2024-02-26T01:41:16;1.60;;;0.80;;
85763;SDS011;76207;39.772;2.706;2024-02-26T01:43:41;2.30;;;1.00;;
85763;SDS011;76207;39.772;2.706;2024-02-26T01:46:08;4.70;;;1.10;;
85763;SDS011;76207;39.772;2.706;2024-02-26T01:48:39;3.90;;;1.10;;
85763;SDS011;76207;39.772;2.706;2024-02-26T01:51:09;2.10;;;0.90;;
85763;SDS011;76207;39.772;2.706;2024-02-26T01:53:35;3.00;;;0.80;;
85763;SDS011;76207;39.772;2.706;2024-02-26T01:56:01;1.30;;;0.50;;
85763;SDS011;76207;39.772;2.706;2024-02-26T01:58:27;1.40;;;0.80;;
85763;SDS011;76207;39.772;2.706;2024-02-26T02:00:55;3.50;;;1.20;;
85763;SDS011;76207;39.772;2.706;2024-02-26T02:03:22;2.80;;;1.00;;
85763;SDS011;76207;39.772;2.706;2024-02-26T02:05:51;1.60;;;0.80;;
85763;SDS011;76207;39.772;2.706;2024-02-26T02:08:16;3.30;;;1.00;;
85763;SDS011;76207;39.772;2.706;2024-02-26T02:10:42;4.40;;;1.50;;
85763;SDS011;76207;39.772;2.706;2024-02-26T02:13:07;3.50;;;1.10;;
85763;SDS011;76207;39.772;2.706;2024-02-26T02:15:33;2.40;;;1.10;;
85763;SDS011;76207;39.772;2.706;2024-02-26T02:17:59;2.90;;;1.00;;
85763;SDS011;76207;39.772;2.706;2024-02-26T02:20:26;3.50;;;1.20;;
85763;SDS011;76207;39.772;2.706;2024-02-26T02:22:58;2.50;;;0.70;;
85763;SDS011;76207;39.772;2.706;2024-02-26T02:25:23;2.60;;;0.90;;
85763;SDS011;76207;39.772;2.706;2024-02-26T02:27:49;3.90;;;1.20;;
85763;SDS011;76207;39.772;2.706;2024-02-26T02:30:15;1.90;;;0.70;;
85763;SDS011;76207;39.772;2.706;2024-02-26T02:32:42;5.10;;;1.50;;
85763;SDS011;76207;39.772;2.706;2024-02-26T02:35:09;2.20;;;1.20;;
85763;SDS011;76207;39.772;2.706;2024-02-26T02:37:34;2.40;;;0.90;;
85763;SDS011;76207;39.772;2.706;2024-02-26T02:40:00;3.20;;;1.10;;
85763;SDS011;76207;39.772;2.706;2024-02-26T02:42:26;2.50;;;1.10;;
85763;SDS011;76207;39.772;2.706;2024-02-26T02:44:51;4.10;;;1.10;;
85763;SDS011;76207;39.772;2.706;2024-02-26T02:47:17;5.80;;;1.40;;
85763;SDS011;76207;39.772;2.706;2024-02-26T02:49:42;3.80;;;1.20;;
85763;SDS011;76207;39.772;2.706;2024-02-26T02:52:08;4.10;;;1.70;;
85763;SDS011;76207;39.772;2.706;2024-02-26T02:54:33;2.40;;;1.10;;
85763;SDS011;76207;39.772;2.706;2024-02-26T02:57:00;4.60;;;1.40;;
85763;SDS011;76207;39.772;2.706;2024-02-26T02:59:26;2.50;;;1.10;;
85763;SDS011;76207;39.772;2.706;2024-02-26T03:01:52;3.40;;;1.30;;
85763;SDS011;76207;39.772;2.706;2024-02-26T03:04:18;3.60;;;1.80;;
85763;SDS011;76207;39.772;2.706;2024-02-26T03:06:43;2.60;;;1.20;;
85763;SDS011;76207;39.772;2.706;2024-02-26T03:09:08;3.40;;;1.10;;
85763;SDS011;76207;39.772;2.706;2024-02-26T03:11:34;2.20;;;1.00;;
85763;SDS011;76207;39.772;2.706;2024-02-26T03:14:00;2.90;;;1.10;;
85763;SDS011;76207;39.772;2.706;2024-02-26T03:16:25;2.70;;;1.10;;
85763;SDS011;76207;39.772;2.706;2024-02-26T03:18:51;2.30;;;1.10;;
85763;SDS011;76207;39.772;2.706;2024-02-26T03:21:16;2.00;;;1.00;;
85763;SDS011;76207;39.772;2.706;2024-02-26T03:23:43;2.10;;;1.10;;
85763;SDS011;76207;39.772;2.706;2024-02-26T03:26:11;1.10;;;0.80;;
85763;SDS011;76207;39.772;2.706;2024-02-26T03:28:40;3.10;;;1.30;;
85763;SDS011;76207;39.772;2.706;2024-02-26T03:31:05;5.00;;;1.20;;
85763;SDS011;76207;39.772;2.706;2024-02-26T03:33:31;2.70;;;1.50;;
85763;SDS011;76207;39.772;2.706;2024-02-26T03:35:56;2.70;;;0.90;;
85763;SDS011;76207;39.772;2.706;2024-02-26T03:38:22;1.90;;;1.10;;
85763;SDS011;76207;39.772;2.706;2024-02-26T03:40:47;1.70;;;0.90;;
85763;SDS011;76207;39.772;2.706;2024-02-26T03:43:13;3.50;;;1.10;;
85763;SDS011;76207;39.772;2.706;2024-02-26T03:45:39;4.30;;;2.00;;
85763;SDS011;76207;39.772;2.706;2024-02-26T03:48:04;2.50;;;1.30;;
85763;SDS011;76207;39.772;2.706;2024-02-26T03:50:30;2.70;;;0.90;;
85763;SDS011;76207;39.772;2.706;2024-02-26T03:52:57;2.80;;;1.00;;
85763;SDS011;76207;39.772;2.706;2024-02-26T03:55:23;2.10;;;1.10;;
85763;SDS011;76207;39.772;2.706;2024-02-26T03:57:52;2.70;;;1.30;;
85763;SDS011;76207;39.772;2.706;2024-02-26T04:00:18;3.60;;;0.90;;
85763;SDS011;76207;39.772;2.706;2024-02-26T04:02:44;3.40;;;1.10;;
85763;SDS011;76207;39.772;2.706;2024-02-26T04:05:11;2.20;;;0.90;;
85763;SDS011;76207;39.772;2.706;2024-02-26T04:07:38;2.00;;;0.90;;
85763;SDS011;76207;39.772;2.706;2024-02-26T04:10:08;2.50;;;0.90;;
85763;SDS011;76207;39.772;2.706;2024-02-26T04:12:34;3.50;;;0.90;;
85763;SDS011;76207;39.772;2.706;2024-02-26T04:15:00;4.80;;;1.20;;
85763;SDS011;76207;39.772;2.706;2024-02-26T04:17:25;1.40;;;0.60;;
85763;SDS011;76207;39.772;2.706;2024-02-26T04:19:51;4.20;;;1.00;;
85763;SDS011;76207;39.772;2.706;2024-02-26T04:22:17;2.60;;;1.00;;
85763;SDS011;76207;39.772;2.706;2024-02-26T04:24:42;3.10;;;1.10;;
85763;SDS011;76207;39.772;2.706;2024-02-26T04:27:08;2.30;;;1.00;;
85763;SDS011;76207;39.772;2.706;2024-02-26T04:29:33;2.70;;;1.00;;
85763;SDS011;76207;39.772;2.706;2024-02-26T04:31:58;3.40;;;1.00;;
85763;SDS011;76207;39.772;2.706;2024-02-26T04:34:24;3.70;;;1.10;;
85763;SDS011;76207;39.772;2.706;2024-02-26T04:36:50;4.00;;;1.80;;
85763;SDS011;76207;39.772;2.706;2024-02-26T04:39:16;3.00;;;1.00;;
85763;SDS011;76207;39.772;2.706;2024-02-26T04:41:41;2.70;;;1.00;;
85763;SDS011;76207;39.772;2.706;2024-02-26T04:44:07;6.20;;;1.30;;
85763;SDS011;76207;39.772;2.706;2024-02-26T04:46:32;5.00;;;1.30;;
85763;SDS011;76207;39.772;2.706;2024-02-26T04:48:58;2.80;;;0.80;;
85763;SDS011;76207;39.772;2.706;2024-02-26T04:51:23;7.00;;;1.50;;
85763;SDS011;76207;39.772;2.706;2024-02-26T04:53:49;5.40;;;1.10;;
85763;SDS011;76207;39.772;2.706;2024-02-26T04:56:14;6.80;;;1.50;;
85763;SDS011;76207;39.772;2.706;2024-02-26T04:58:40;4.70;;;1.60;;
85763;SDS011;76207;39.772;2.706;2024-02-26T05:01:05;7.10;;;2.20;;
85763;SDS011;76207;39.772;2.706;2024-02-26T05:03:31;2.30;;;1.20;;
85763;SDS011;76207;39.772;2.706;2024-02-26T05:05:56;5.10;;;1.20;;
85763;SDS011;76207;39.772;2.706;2024-02-26T05:08:23;7.60;;;2.00;;
85763;SDS011;76207;39.772;2.706;2024-02-26T05:10:49;3.70;;;1.30;;
85763;SDS011;76207;39.772;2.706;2024-02-26T05:13:14;7.40;;;1.40;;
85763;SDS011;76207;39.772;2.706;2024-02-26T05:15:41;5.70;;;1.50;;
85763;SDS011;76207;39.772;2.706;2024-02-26T05:18:07;4.90;;;2.20;;
85763;SDS011;76207;39.772;2.706;2024-02-26T05:20:33;6.20;;;3.20;;
85763;SDS011;76207;39.772;2.706;2024-02-26T05:23:00;3.60;;;1.50;;
85763;SDS011;76207;39.772;2.706;2024-02-26T05:25:26;5.10;;;1.40;;
85763;SDS011;76207;39.772;2.706;2024-02-26T05:27:51;3.20;;;1.50;;
85763;SDS011;76207;39.772;2.706;2024-02-26T05:30:16;5.10;;;1.70;;
85763;SDS011;76207;39.772;2.706;2024-02-26T05:32:42;7.70;;;1.70;;
85763;SDS011;76207;39.772;2.706;2024-02-26T05:35:08;4.30;;;1.10;;
85763;SDS011;76207;39.772;2.706;2024-02-26T05:37:33;5.60;;;1.30;;
85763;SDS011;76207;39.772;2.706;2024-02-26T05:39:59;7.50;;;1.60;;
85763;SDS011;76207;39.772;2.706;2024-02-26T05:42:25;4.50;;;1.30;;
85763;SDS011;76207;39.772;2.706;2024-02-26T05:44:50;4.70;;;1.60;;
85763;SDS011;76207;39.772;2.706;2024-02-26T05:47:16;7.70;;;1.60;;
85763;SDS011;76207;39.772;2.706;2024-02-26T05:49:42;7.90;;;1.70;;
85763;SDS011;76207;39.772;2.706;2024-02-26T05:52:08;4.80;;;1.50;;
85763;SDS011;76207;39.772;2.706;2024-02-26T05:54:34;7.90;;;1.80;;
85763;SDS011;76207;39.772;2.706;2024-02-26T05:56:59;4.40;;;1.40;;
85763;SDS011;76207;39.772;2.706;2024-02-26T05:59:25;9.70;;;2.10;;
85763;SDS011;76207;39.772;2.706;2024-02-26T06:01:50;9.50;;;2.10;;
85763;SDS011;76207;39.772;2.706;2024-02-26T06:04:16;5.00;;;1.40;;
85763;SDS011;76207;39.772;2.706;2024-02-26T06:06:44;10.50;;;3.00;;
85763;SDS011;76207;39.772;2.706;2024-02-26T06:09:10;6.40;;;1.40;;
85763;SDS011;76207;39.772;2.706;2024-02-26T06:11:36;13.80;;;2.00;;
85763;SDS011;76207;39.772;2.706;2024-02-26T06:14:02;4.40;;;1.50;;
85763;SDS011;76207;39.772;2.706;2024-02-26T06:16:28;6.50;;;1.80;;
85763;SDS011;76207;39.772;2.706;2024-02-26T06:18:53;4.30;;;1.40;;
85763;SDS011;76207;39.772;2.706;2024-02-26T06:21:19;7.50;;;2.00;;
85763;SDS011;76207;39.772;2.706;2024-02-26T06:23:44;6.00;;;1.80;;
85763;SDS011;76207;39.772;2.706;2024-02-26T06:26:10;5.00;;;1.80;;
85763;SDS011;76207;39.772;2.706;2024-02-26T06:28:35;5.20;;;2.10;;
85763;SDS011;76207;39.772;2.706;2024-02-26T06:31:01;4.20;;;1.70;;
85763;SDS011;76207;39.772;2.706;2024-02-26T06:33:27;6.00;;;1.80;;
85763;SDS011;76207;39.772;2.706;2024-02-26T06:35:53;5.60;;;2.20;;
85763;SDS011;76207;39.772;2.706;2024-02-26T06:38:18;7.10;;;1.70;;
85763;SDS011;76207;39.772;2.706;2024-02-26T06:40:44;6.30;;;2.00;;
85763;SDS011;76207;39.772;2.706;2024-02-26T06:43:10;6.10;;;2.20;;
85763;SDS011;76207;39.772;2.706;2024-02-26T06:45:35;6.80;;;2.10;;
85763;SDS011;76207;39.772;2.706;2024-02-26T06:48:01;5.60;;;3.00;;
85763;SDS011;76207;39.772;2.706;2024-02-26T06:50:27;4.50;;;2.00;;
85763;SDS011;76207;39.772;2.706;2024-02-26T06:52:53;3.70;;;1.60;;
85763;SDS011;76207;39.772;2.706;2024-02-26T06:55:18;5.00;;;1.70;;
85763;SDS011;76207;39.772;2.706;2024-02-26T06:57:44;6.10;;;2.00;;
85763;SDS011;76207;39.772;2.706;2024-02-26T07:00:10;5.40;;;1.80;;
85763;SDS011;76207;39.772;2.706;2024-02-26T07:02:43;4.60;;;1.80;;
85763;SDS011;76207;39.772;2.706;2024-02-26T07:05:08;4.60;;;1.60;;
85763;SDS011;76207;39.772;2.706;2024-02-26T07:07:35;9.40;;;2.10;;
85763;SDS011;76207;39.772;2.706;2024-02-26T07:10:01;6.80;;;1.70;;
85763;SDS011;76207;39.772;2.706;2024-02-26T07:12:29;4.00;;;1.70;;
85763;SDS011;76207;39.772;2.706;2024-02-26T07:14:55;5.40;;;1.60;;
85763;SDS011;76207;39.772;2.706;2024-02-26T07:17:21;5.20;;;1.90;;
85763;SDS011;76207;39.772;2.706;2024-02-26T07:19:46;11.00;;;2.10;;
85763;SDS011;76207;39.772;2.706;2024-02-26T07:22:11;9.20;;;2.00;;
85763;SDS011;76207;39.772;2.706;2024-02-26T07:24:37;12.30;;;2.60;;
85763;SDS011;76207;39.772;2.706;2024-02-26T07:27:03;8.90;;;2.30;;
85763;SDS011;76207;39.772;2.706;2024-02-26T07:29:29;9.30;;;2.20;;
85763;SDS011;76207;39.772;2.706;2024-02-26T07:31:54;7.50;;;2.20;;
85763;SDS011;76207;39.772;2.706;2024-02-26T07:34:20;6.00;;;2.30;;
85763;SDS011;76207;39.772;2.706;2024-02-26T07:36:52;6.80;;;2.10;;
85763;SDS011;76207;39.772;2.706;2024-02-26T07:39:19;11.00;;;2.30;;
85763;SDS011;76207;39.772;2.706;2024-02-26T07:41:44;7.30;;;2.20;;
85763;SDS011;76207;39.772;2.706;2024-02-26T07:44:13;8.10;;;2.20;;
85763;SDS011;76207;39.772;2.706;2024-02-26T07:46:39;4.80;;;1.90;;
85763;SDS011;76207;39.772;2.706;2024-02-26T07:49:04;16.20;;;5.30;;
85763;SDS011;76207;39.772;2.706;2024-02-26T07:51:29;12.20;;;2.80;;
85763;SDS011;76207;39.772;2.706;2024-02-26T07:53:55;7.80;;;2.50;;
85763;SDS011;76207;39.772;2.706;2024-02-26T07:56:20;8.00;;;2.20;;
85763;SDS011;76207;39.772;2.706;2024-02-26T07:58:46;4.90;;;1.80;;
85763;SDS011;76207;39.772;2.706;2024-02-26T08:01:14;8.10;;;2.10;;
85763;SDS011;76207;39.772;2.706;2024-02-26T08:03:40;10.10;;;2.20;;
85763;SDS011;76207;39.772;2.706;2024-02-26T08:06:06;6.90;;;2.50;;
85763;SDS011;76207;39.772;2.706;2024-02-26T08:08:33;7.60;;;2.40;;
85763;SDS011;76207;39.772;2.706;2024-02-26T08:10:59;6.60;;;2.50;;
85763;SDS011;76207;39.772;2.706;2024-02-26T08:13:25;6.40;;;2.10;;
85763;SDS011;76207;39.772;2.706;2024-02-26T08:15:51;7.80;;;3.10;;
85763;SDS011;76207;39.772;2.706;2024-02-26T08:18:17;5.30;;;2.10;;
85763;SDS011;76207;39.772;2.706;2024-02-26T08:20:42;12.90;;;2.50;;
85763;SDS011;76207;39.772;2.706;2024-02-26T08:23:08;7.00;;;3.30;;
85763;SDS011;76207;39.772;2.706;2024-02-26T08:25:33;7.10;;;2.40;;
85763;SDS011;76207;39.772;2.706;2024-02-26T08:27:59;10.20;;;2.70;;
85763;SDS011;76207;39.772;2.706;2024-02-26T08:30:24;6.70;;;2.30;;
85763;SDS011;76207;39.772;2.706;2024-02-26T08:32:50;8.20;;;2.60;;
85763;SDS011;76207;39.772;2.706;2024-02-26T08:35:16;6.40;;;2.90;;
85763;SDS011;76207;39.772;2.706;2024-02-26T08:37:44;7.60;;;3.20;;
85763;SDS011;76207;39.772;2.706;2024-02-26T08:40:11;9.90;;;3.40;;
85763;SDS011;76207;39.772;2.706;2024-02-26T08:42:36;9.50;;;3.80;;
85763;SDS011;76207;39.772;2.706;2024-02-26T08:45:02;10.90;;;4.00;;
85763;SDS011;76207;39.772;2.706;2024-02-26T08:47:28;8.50;;;3.10;;
85763;SDS011;76207;39.772;2.706;2024-02-26T08:49:54;10.90;;;5.00;;
85763;SDS011;76207;39.772;2.706;2024-02-26T08:52:20;10.10;;;4.10;;
85763;SDS011;76207;39.772;2.706;2024-02-26T08:54:46;7.60;;;3.50;;
85763;SDS011;76207;39.772;2.706;2024-02-26T08:57:13;8.30;;;3.50;;
85763;SDS011;76207;39.772;2.706;2024-02-26T08:59:39;10.30;;;3.50;;
85763;SDS011;76207;39.772;2.706;2024-02-26T09:02:04;7.30;;;2.30;;
85763;SDS011;76207;39.772;2.706;2024-02-26T09:04:30;6.70;;;2.70;;
85763;SDS011;76207;39.772;2.706;2024-02-26T09:06:55;8.40;;;2.50;;
85763;SDS011;76207;39.772;2.706;2024-02-26T09:09:21;6.90;;;2.20;;
85763;SDS011;76207;39.772;2.706;2024-02-26T09:11:47;9.80;;;2.30;;
85763;SDS011;76207;39.772;2.706;2024-02-26T09:14:17;7.40;;;2.80;;
85763;SDS011;76207;39.772;2.706;2024-02-26T09:16:43;7.40;;;2.10;;
85763;SDS011;76207;39.772;2.706;2024-02-26T09:19:09;5.80;;;1.90;;
85763;SDS011;76207;39.772;2.706;2024-02-26T09:21:34;8.30;;;2.50;;
85763;SDS011;76207;39.772;2.706;2024-02-26T09:24:00;8.20;;;2.20;;
85763;SDS011;76207;39.772;2.706;2024-02-26T09:26:25;5.20;;;2.60;;
85763;SDS011;76207;39.772;2.706;2024-02-26T09:28:51;5.90;;;2.50;;
85763;SDS011;76207;39.772;2.706;2024-02-26T09:31:17;6.00;;;2.30;;
85763;SDS011;76207;39.772;2.706;2024-02-26T09:33:46;7.10;;;2.40;;
85763;SDS011;76207;39.772;2.706;2024-02-26T09:36:12;5.40;;;2.70;;
85763;SDS011;76207;39.772;2.706;2024-02-26T09:38:37;6.10;;;2.40;;
85763;SDS011;76207;39.772;2.706;2024-02-26T09:41:06;9.50;;;2.30;;
85763;SDS011;76207;39.772;2.706;2024-02-26T09:43:35;11.80;;;2.60;;
85763;SDS011;76207;39.772;2.706;2024-02-26T09:46:01;9.90;;;2.50;;
85763;SDS011;76207;39.772;2.706;2024-02-26T09:48:28;6.80;;;2.30;;
85763;SDS011;76207;39.772;2.706;2024-02-26T09:50:55;9.30;;;2.10;;
85763;SDS011;76207;39.772;2.706;2024-02-26T09:53:21;7.40;;;2.00;;
85763;SDS011;76207;39.772;2.706;2024-02-26T09:55:47;7.30;;;2.40;;
85763;SDS011;76207;39.772;2.706;2024-02-26T09:58:13;8.00;;;2.30;;
85763;SDS011;76207;39.772;2.706;2024-02-26T10:00:44;5.80;;;2.00;;
85763;SDS011;76207;39.772;2.706;2024-02-26T10:03:15;10.30;;;2.50;;
85763;SDS011;76207;39.772;2.706;2024-02-26T10:05:41;11.40;;;3.00;;
85763;SDS011;76207;39.772;2.706;2024-02-26T10:08:08;9.20;;;3.20;;
85763;SDS011;76207;39.772;2.706;2024-02-26T10:10:36;8.80;;;3.90;;
85763;SDS011;76207;39.772;2.706;2024-02-26T10:13:03;9.90;;;5.00;;
85763;SDS011;76207;39.772;2.706;2024-02-26T10:15:35;10.90;;;5.00;;
85763;SDS011;76207;39.772;2.706;2024-02-26T10:18:05;8.90;;;3.60;;
85763;SDS011;76207;39.772;2.706;2024-02-26T10:20:31;9.30;;;3.20;;
85763;SDS011;76207;39.772;2.706;2024-02-26T10:22:57;8.50;;;2.60;;
85763;SDS011;76207;39.772;2.706;2024-02-26T10:25:23;7.50;;;2.10;;
85763;SDS011;76207;39.772;2.706;2024-02-26T10:27:49;5.80;;;2.30;;
85763;SDS011;76207;39.772;2.706;2024-02-26T10:30:19;4.40;;;1.60;;
85763;SDS011;76207;39.772;2.706;2024-02-26T10:32:46;5.20;;;1.80;;
85763;SDS011;76207;39.772;2.706;2024-02-26T10:35:13;4.10;;;1.60;;
85763;SDS011;76207;39.772;2.706;2024-02-26T10:37:40;3.90;;;1.40;;
85763;SDS011;76207;39.772;2.706;2024-02-26T10:40:09;5.70;;;1.70;;
85763;SDS011;76207;39.772;2.706;2024-02-26T10:42:36;4.70;;;1.60;;
85763;SDS011;76207;39.772;2.706;2024-02-26T10:45:01;5.40;;;1.50;;
85763;SDS011;76207;39.772;2.706;2024-02-26T10:47:28;4.90;;;1.40;;
85763;SDS011;76207;39.772;2.706;2024-02-26T10:49:55;4.20;;;1.40;;
85763;SDS011;76207;39.772;2.706;2024-02-26T10:52:21;6.20;;;1.50;;
85763;SDS011;76207;39.772;2.706;2024-02-26T10:54:50;4.00;;;1.30;;
85763;SDS011;76207;39.772;2.706;2024-02-26T10:57:19;4.70;;;1.20;;
85763;SDS011;76207;39.772;2.706;2024-02-26T10:59:47;2.70;;;1.10;;
85763;SDS011;76207;39.772;2.706;2024-02-26T11:02:14;2.70;;;1.20;;
85763;SDS011;76207;39.772;2.706;2024-02-26T11:04:40;3.00;;;1.30;;
85763;SDS011;76207;39.772;2.706;2024-02-26T11:07:08;2.60;;;1.20;;
85763;SDS011;76207;39.772;2.706;2024-02-26T11:09:35;3.50;;;1.70;;
85763;SDS011;76207;39.772;2.706;2024-02-26T11:12:08;3.30;;;1.50;;
85763;SDS011;76207;39.772;2.706;2024-02-26T11:14:36;4.50;;;1.70;;
85763;SDS011;76207;39.772;2.706;2024-02-26T11:17:04;7.80;;;2.80;;
85763;SDS011;76207;39.772;2.706;2024-02-26T11:19:32;5.60;;;3.30;;
85763;SDS011;76207;39.772;2.706;2024-02-26T11:22:01;6.10;;;3.20;;
85763;SDS011;76207;39.772;2.706;2024-02-26T11:24:27;5.70;;;2.00;;
85763;SDS011;76207;39.772;2.706;2024-02-26T11:26:54;7.50;;;3.00;;
85763;SDS011;76207;39.772;2.706;2024-02-26T11:29:27;5.30;;;3.30;;
85763;SDS011;76207;39.772;2.706;2024-02-26T11:31:58;7.20;;;3.30;;
85763;SDS011;76207;39.772;2.706;2024-02-26T11:34:25;5.10;;;2.20;;
85763;SDS011;76207;39.772;2.706;2024-02-26T11:36:51;6.30;;;2.80;;
85763;SDS011;76207;39.772;2.706;2024-02-26T11:39:21;6.10;;;3.60;;
85763;SDS011;76207;39.772;2.706;2024-02-26T11:41:47;5.10;;;2.60;;
85763;SDS011;76207;39.772;2.706;2024-02-26T11:44:13;8.20;;;7.30;;
85763;SDS011;76207;39.772;2.706;2024-02-26T11:46:39;9.20;;;7.00;;
85763;SDS011;76207;39.772;2.706;2024-02-26T11:51:57;4.80;;;3.80;;
85763;SDS011;76207;39.772;2.706;2024-02-26T11:57:37;12.10;;;7.90;;
85763;SDS011;76207;39.772;2.706;2024-02-26T12:05:11;11.40;;;10.10;;
85763;SDS011;76207;39.772;2.706;2024-02-26T12:07:44;7.90;;;7.10;;
85763;SDS011;76207;39.772;2.706;2024-02-26T12:13:05;10.40;;;9.20;;
85763;SDS011;76207;39.772;2.706;2024-02-26T12:15:31;6.30;;;4.50;;
85763;SDS011;76207;39.772;2.706;2024-02-26T12:18:02;10.00;;;7.40;;
85763;SDS011;76207;39.772;2.706;2024-02-26T12:20:30;4.90;;;3.60;;
85763;SDS011;76207;39.772;2.706;2024-02-26T12:22:56;10.70;;;6.30;;
85763;SDS011;76207;39.772;2.706;2024-02-26T12:25:25;6.00;;;4.40;;
85763;SDS011;76207;39.772;2.706;2024-02-26T12:27:54;4.30;;;3.40;;
85763;SDS011;76207;39.772;2.706;2024-02-26T12:30:20;6.60;;;5.00;;
85763;SDS011;76207;39.772;2.706;2024-02-26T12:32:47;6.10;;;4.80;;
85763;SDS011;76207;39.772;2.706;2024-02-26T12:35:14;8.30;;;5.00;;
85763;SDS011;76207;39.772;2.706;2024-02-26T12:37:41;6.40;;;4.00;;
85763;SDS011;76207;39.772;2.706;2024-02-26T12:40:10;6.20;;;4.80;;
85763;SDS011;76207;39.772;2.706;2024-02-26T12:42:36;5.70;;;4.00;;
85763;SDS011;76207;39.772;2.706;2024-02-26T12:45:07;9.80;;;6.10;;
85763;SDS011;76207;39.772;2.706;2024-02-26T12:47:35;7.40;;;5.00;;
85763;SDS011;76207;39.772;2.706;2024-02-26T12:50:02;6.90;;;4.20;;
85763;SDS011;76207;39.772;2.706;2024-02-26T12:52:30;5.50;;;2.90;;
85763;SDS011;76207;39.772;2.706;2024-02-26T12:54:57;7.20;;;4.90;;
85763;SDS011;76207;39.772;2.706;2024-02-26T12:57:23;7.20;;;4.20;;
85763;SDS011;76207;39.772;2.706;2024-02-26T12:59:49;5.20;;;3.90;;
85763;SDS011;76207;39.772;2.706;2024-02-26T13:02:15;4.20;;;3.70;;
85763;SDS011;76207;39.772;2.706;2024-02-26T13:04:41;7.50;;;5.00;;
85763;SDS011;76207;39.772;2.706;2024-02-26T13:07:06;6.50;;;5.90;;
85763;SDS011;76207;39.772;2.706;2024-02-26T13:09:32;7.30;;;6.50;;
85763;SDS011;76207;39.772;2.706;2024-02-26T13:12:06;5.70;;;4.40;;
85763;SDS011;76207;39.772;2.706;2024-02-26T13:14:32;3.10;;;2.30;;
85763;SDS011;76207;39.772;2.706;2024-02-26T13:16:59;4.20;;;2.60;;
85763;SDS011;76207;39.772;2.706;2024-02-26T13:19:25;3.80;;;2.50;;
85763;SDS011;76207;39.772;2.706;2024-02-26T13:21:53;3.20;;;2.20;;
85763;SDS011;76207;39.772;2.706;2024-02-26T13:24:20;5.70;;;3.20;;
85763;SDS011;76207;39.772;2.706;2024-02-26T13:26:47;5.00;;;3.20;;
85763;SDS011;76207;39.772;2.706;2024-02-26T13:29:19;5.40;;;3.90;;
85763;SDS011;76207;39.772;2.706;2024-02-26T13:31:45;6.10;;;3.90;;
85763;SDS011;76207;39.772;2.706;2024-02-26T13:34:11;7.10;;;4.00;;
85763;SDS011;76207;39.772;2.706;2024-02-26T13:36:52;5.90;;;3.10;;
85763;SDS011;76207;39.772;2.706;2024-02-26T13:39:25;3.80;;;3.00;;
85763;SDS011;76207;39.772;2.706;2024-02-26T13:41:52;3.50;;;2.20;;
85763;SDS011;76207;39.772;2.706;2024-02-26T13:44:19;3.00;;;2.30;;
85763;SDS011;76207;39.772;2.706;2024-02-26T13:46:49;4.40;;;1.90;;
85763;SDS011;76207;39.772;2.706;2024-02-26T13:49:14;4.20;;;2.30;;
85763;SDS011;76207;39.772;2.706;2024-02-26T13:51:40;2.60;;;1.70;;
85763;SDS011;76207;39.772;2.706;2024-02-26T13:54:06;3.10;;;1.50;;
85763;SDS011;76207;39.772;2.706;2024-02-26T13:56:32;3.10;;;2.40;;
85763;SDS011;76207;39.772;2.706;2024-02-26T13:58:58;6.70;;;5.10;;
85763;SDS011;76207;39.772;2.706;2024-02-26T14:01:24;7.10;;;5.60;;
85763;SDS011;76207;39.772;2.706;2024-02-26T14:03:50;6.10;;;3.30;;
85763;SDS011;76207;39.772;2.706;2024-02-26T14:06:16;3.80;;;2.30;;
85763;SDS011;76207;39.772;2.706;2024-02-26T14:08:42;8.20;;;5.90;;
85763;SDS011;76207;39.772;2.706;2024-02-26T14:11:08;6.70;;;3.60;;
85763;SDS011;76207;39.772;2.706;2024-02-26T14:13:33;3.70;;;2.30;;
85763;SDS011;76207;39.772;2.706;2024-02-26T14:15:59;4.70;;;2.20;;
85763;SDS011;76207;39.772;2.706;2024-02-26T14:18:24;3.60;;;3.20;;
85763;SDS011;76207;39.772;2.706;2024-02-26T14:20:50;3.90;;;3.40;;
85763;SDS011;76207;39.772;2.706;2024-02-26T14:23:16;6.10;;;3.60;;
85763;SDS011;76207;39.772;2.706;2024-02-26T14:25:42;7.90;;;4.20;;
85763;SDS011;76207;39.772;2.706;2024-02-26T14:28:07;5.40;;;3.00;;
85763;SDS011;76207;39.772;2.706;2024-02-26T14:30:33;5.20;;;2.90;;
85763;SDS011;76207;39.772;2.706;2024-02-26T14:32:58;5.90;;;4.20;;
85763;SDS011;76207;39.772;2.706;2024-02-26T14:35:24;6.30;;;3.50;;
85763;SDS011;76207;39.772;2.706;2024-02-26T14:37:51;5.10;;;3.20;;
85763;SDS011;76207;39.772;2.706;2024-02-26T14:40:17;5.30;;;3.80;;
85763;SDS011;76207;39.772;2.706;2024-02-26T14:42:43;4.50;;;2.20;;
85763;SDS011;76207;39.772;2.706;2024-02-26T14:45:10;5.50;;;3.10;;
85763;SDS011;76207;39.772;2.706;2024-02-26T14:47:36;3.40;;;2.10;;
85763;SDS011;76207;39.772;2.706;2024-02-26T14:50:02;4.00;;;2.10;;
85763;SDS011;76207;39.772;2.706;2024-02-26T14:52:28;5.10;;;2.20;;
85763;SDS011;76207;39.772;2.706;2024-02-26T14:54:53;3.20;;;1.70;;
85763;SDS011;76207;39.772;2.706;2024-02-26T14:57:19;3.30;;;2.60;;